createdAt,value
2022-10-06T02:09:35.035Z,3.48
2022-10-06T02:14:41.201Z,3.03
2022-10-06T02:19:52.795Z,3.03
2022-10-06T02:24:55.853Z,2.81
2022-10-06T02:30:05.022Z,3.19
2022-10-06T02:35:17.207Z,2.85
2022-10-06T02:40:27.238Z,2.93
2022-10-06T02:59:36.728Z,3.58
2022-10-06T03:05:19.152Z,3.36
2022-10-06T03:10:55.881Z,3.28
2022-10-06T03:16:04.702Z,3.02
2022-10-06T03:21:48.668Z,3.48
2022-10-06T03:32:42.390Z,3.38
2022-10-06T03:37:58.740Z,3.13
2022-10-06T03:43:40.138Z,3.57
2022-10-06T04:06:55.645Z,2.99
2022-10-06T04:17:40.186Z,3.05
2022-10-06T05:37:50.555Z,4.43
2022-10-06T05:42:59.583Z,4.75
2022-10-06T05:48:03.596Z,5.14
2022-10-06T05:53:32.743Z,5.06
2022-10-06T05:58:56.391Z,5.44
2022-10-06T06:04:05.786Z,5.52
2022-10-06T06:09:18.413Z,5.70
2022-10-06T06:14:47.250Z,6.37
2022-10-06T06:19:54.855Z,15.51
2022-10-06T06:25:12.402Z,22.35
2022-10-06T06:30:18.908Z,23.17
2022-10-06T06:35:28.136Z,24.21
2022-10-06T06:40:34.751Z,25.29
2022-10-06T06:45:37.582Z,25.39
2022-10-06T07:02:20.006Z,26.43
2022-10-06T07:13:54.727Z,24.55
2022-10-06T07:19:24.970Z,24.40
2022-10-06T07:30:40.737Z,24.40
2022-10-06T07:35:52.995Z,24.73
2022-10-06T07:46:22.490Z,23.93
2022-10-06T07:51:54.172Z,24.45
2022-10-06T07:56:57.314Z,24.83
2022-10-06T08:01:59.422Z,24.73
2022-10-06T08:46:53.115Z,26.06
2022-10-06T08:52:10.802Z,25.30
2022-10-06T08:57:39.508Z,24.67
2022-10-06T09:02:49.345Z,25.03
2022-10-06T09:14:42.577Z,25.50
2022-10-06T09:20:01.831Z,25.88
2022-10-06T09:25:35.480Z,25.60
2022-10-06T09:30:38.014Z,24.38
2022-10-06T09:36:10.010Z,25.22
2022-10-06T09:41:15.630Z,25.44
2022-10-06T09:46:32.441Z,25.66
2022-10-06T09:51:36.805Z,25.50
2022-10-06T09:56:45.541Z,26.23
2022-10-06T10:01:55.853Z,25.75
2022-10-06T10:07:32.483Z,24.94
2022-10-06T10:12:58.577Z,24.15
2022-10-06T10:18:19.299Z,25.74
2022-10-06T10:23:57.473Z,25.39
2022-10-06T10:29:33.062Z,25.59
2022-10-06T10:34:58.954Z,24.44
2022-10-06T10:40:35.906Z,24.00
2022-10-06T10:45:55.603Z,23.11
2022-10-06T10:51:19.409Z,23.61
2022-10-06T10:56:26.675Z,22.96
2022-10-06T11:01:29.841Z,22.54
2022-10-06T11:06:41.872Z,22.24
2022-10-06T11:12:13.974Z,21.86
2022-10-06T11:17:29.910Z,22.11
2022-10-06T11:22:53.068Z,22.28
2022-10-06T11:28:36.224Z,21.80
2022-10-06T11:33:46.744Z,21.59
2022-10-06T11:38:57.003Z,21.16
2022-10-06T11:44:24.090Z,20.64
2022-10-06T11:49:29.609Z,21.15
2022-10-06T11:54:44.121Z,20.91
2022-10-06T11:59:46.493Z,20.92
2022-10-06T12:10:58.858Z,20.91
2022-10-06T12:28:34.970Z,21.28
2022-10-06T13:06:53.155Z,20.12
2022-10-06T13:18:38.437Z,19.87
2022-10-06T13:23:41.518Z,19.84
2022-10-06T13:47:39.890Z,19.20
2022-10-06T13:52:54.958Z,19.43
2022-10-06T13:58:05.166Z,19.57
2022-10-06T14:44:26.994Z,18.61
2022-10-06T15:13:11.649Z,17.85
2022-10-06T15:18:39.502Z,17.62
2022-10-06T15:23:48.506Z,16.75
2022-10-06T15:29:06.061Z,16.64
2022-10-06T15:34:15.234Z,16.49
2022-10-06T15:55:47.721Z,14.66
2022-10-06T16:01:11.794Z,14.82
2022-10-06T16:19:43.262Z,13.66
2022-10-06T16:24:58.111Z,13.77
2022-10-06T16:30:00.662Z,13.64
2022-10-06T16:35:03.123Z,13.50
2022-10-06T16:40:05.815Z,13.30
2022-10-06T16:45:16.011Z,13.02
2022-10-06T16:50:18.507Z,12.19
2022-10-06T16:55:20.762Z,11.96
2022-10-06T17:00:23.148Z,11.82
2022-10-06T17:05:25.527Z,11.45
2022-10-06T17:10:27.906Z,11.73
2022-10-06T17:15:33.407Z,11.05
2022-10-06T17:20:54.517Z,11.01
2022-10-06T17:26:23.561Z,11.02
2022-10-06T17:31:32.828Z,10.52
2022-10-06T17:36:38.261Z,10.70
2022-10-06T17:41:47.923Z,10.50
2022-10-06T17:46:52.580Z,10.16
2022-10-06T17:51:56.094Z,10.28
2022-10-06T17:56:59.354Z,9.99
2022-10-06T18:02:03.348Z,9.58
2022-10-06T18:07:06.446Z,9.34
2022-10-06T18:12:10.668Z,9.34
2022-10-06T18:17:13.019Z,8.92
2022-10-06T18:22:17.082Z,8.52
2022-10-06T18:27:19.273Z,9.18
2022-10-06T18:34:12.032Z,8.59
2022-10-06T18:37:47.145Z,8.82
2022-10-06T18:42:49.537Z,8.79
2022-10-06T18:48:10.138Z,8.38
2022-10-06T18:53:16.699Z,8.44
2022-10-06T18:58:45.265Z,8.27
2022-10-06T19:03:47.624Z,7.88
2022-10-06T19:09:02.222Z,8.40
2022-10-06T19:14:04.556Z,7.71
2022-10-06T19:19:11.499Z,7.76
2022-10-06T19:24:16.749Z,7.60
2022-10-06T19:29:23.917Z,8.32
2022-10-06T19:34:52.031Z,8.16
2022-10-06T19:40:03.792Z,7.96
2022-10-06T19:45:07.417Z,7.92
2022-10-06T19:50:12.566Z,8.00
2022-10-06T19:55:15.252Z,7.77
2022-10-06T20:06:42.203Z,7.51
2022-10-06T20:17:48.635Z,7.02
2022-10-06T20:23:05.826Z,6.59
2022-10-06T20:52:06.527Z,6.53
2022-10-06T20:57:14.954Z,6.41
2022-10-06T21:09:20.741Z,6.68
2022-10-06T21:14:45.198Z,6.29
2022-10-06T21:20:16.503Z,5.92
2022-10-06T21:25:19.805Z,6.30
2022-10-06T21:30:51.932Z,5.89
2022-10-06T21:54:26.442Z,6.14
2022-10-06T21:59:46.859Z,5.44
2022-10-06T22:06:19.259Z,5.46
2022-10-06T22:14:25.602Z,5.50
2022-10-06T22:19:43.061Z,5.16
2022-10-06T22:25:12.415Z,5.11
2022-10-06T22:30:22.828Z,5.28
2022-10-06T22:42:19.262Z,5.39
2022-10-06T22:54:38.491Z,5.57
2022-10-06T23:05:29.972Z,4.84
2022-10-06T23:17:37.719Z,5.37
2022-10-06T23:52:37.378Z,4.40
2022-10-06T23:58:13.230Z,4.96
